Time;durP1;ratioP1;P1;durP2;ratioP2;P2;SDS_P1;SDS_P2;PMS_P1;PMS_P2;Temp;Humidity;BMP_temperature;BMP_pressure;BME280_temperature;BME280_humidity;BME280_pressure;Samples;Min_cycle;Max_cycle;Signal;HPM_P1;HPM_P2
2022/02/07 00:02:02;;;;;;;0.33;0.10;;;;;;;;;;5022444;28;20136;-70
2022/02/07 00:04:34;;;;;;;0.22;0.20;;;;;;;;;;5015871;28;20647;-69
2022/02/07 00:07:02;;;;;;;0.10;0.10;;;;;;;;;;5017815;28;20111;-70
2022/02/07 00:09:33;;;;;;;0.10;0.10;;;;;;;;;;5018130;28;20045;-71
2022/02/07 00:12:01;;;;;;;0.10;0.10;;;;;;;;;;5020138;28;20140;-70
2022/02/07 00:14:30;;;;;;;0.82;0.13;;;;;;;;;;5025535;28;20041;-70
2022/02/07 00:16:59;;;;;;;0.10;0.10;;;;;;;;;;5021936;28;20075;-70
2022/02/07 00:19:28;;;;;;;0.10;0.10;;;;;;;;;;5021645;28;20055;-70
2022/02/07 00:21:58;;;;;;;0.10;0.10;;;;;;;;;;5012128;28;20050;-70
2022/02/07 00:24:26;;;;;;;0.10;0.10;;;;;;;;;;5012040;28;20049;-69
2022/02/07 00:26:54;;;;;;;0.20;0.20;;;;;;;;;;5009998;28;20042;-70
2022/02/07 00:29:22;;;;;;;0.10;0.10;;;;;;;;;;5011810;28;20052;-70
2022/02/07 00:31:52;;;;;;;0.10;0.10;;;;;;;;;;5022457;28;20132;-70
2022/02/07 00:34:20;;;;;;;0.25;0.10;;;;;;;;;;5015881;28;20438;-70
2022/02/07 00:36:49;;;;;;;0.10;0.10;;;;;;;;;;5009359;28;20060;-70
2022/02/07 00:39:24;;;;;;;0.10;0.10;;;;;;;;;;5009764;28;20060;-70
2022/02/07 00:41:58;;;;;;;0.30;0.30;;;;;;;;;;5010741;28;20091;-69
2022/02/07 00:44:27;;;;;;;0.20;0.20;;;;;;;;;;5022222;28;20053;-69
2022/02/07 00:46:59;;;;;;;0.20;0.10;;;;;;;;;;5021969;28;20053;-69
2022/02/07 00:49:27;;;;;;;0.43;0.20;;;;;;;;;;5029967;28;20046;-69
2022/02/07 00:51:55;;;;;;;0.30;0.20;;;;;;;;;;5020720;28;20073;-69
2022/02/07 00:54:24;;;;;;;0.13;0.13;;;;;;;;;;5027369;28;20504;-69
2022/02/07 00:56:52;;;;;;;0.10;0.10;;;;;;;;;;5018109;28;20063;-68
2022/02/07 00:59:21;;;;;;;0.10;0.10;;;;;;;;;;5021269;28;20056;-69
2022/02/07 01:01:50;;;;;;;0.10;0.10;;;;;;;;;;5025635;28;20052;-68
2022/02/07 01:04:19;;;;;;;2.17;0.13;;;;;;;;;;5015892;28;20446;-69
2022/02/07 01:06:48;;;;;;;2.38;0.17;;;;;;;;;;5027582;28;20050;-69
2022/02/07 01:09:19;;;;;;;0.43;0.22;;;;;;;;;;5026629;28;20533;-69
2022/02/07 01:12:03;;;;;;;0.10;0.10;;;;;;;;;;5021990;28;20073;-69
2022/02/07 01:14:44;;;;;;;0.17;0.10;;;;;;;;;;5027669;28;20058;-69
2022/02/07 01:20:34;;;;;;;0.20;0.10;;;;;;;;;;5030207;28;20038;-69
2022/02/07 01:23:25;;;;;;;0.10;0.10;;;;;;;;;;5019975;28;20156;-69
2022/02/07 01:49:02;;;;;;;0.10;0.10;;;;;;;;;;4977533;28;20490;-69
2022/02/07 01:51:56;;;;;;;0.32;0.17;;;;;;;;;;5029691;28;20055;-70
2022/02/07 01:54:34;;;;;;;0.10;0.10;;;;;;;;;;5029643;28;20049;-69
2022/02/07 01:57:05;;;;;;;0.10;0.10;;;;;;;;;;5019373;28;20042;-69
2022/02/07 01:59:33;;;;;;;0.52;0.28;;;;;;;;;;5022296;28;20054;-70
2022/02/07 02:02:01;;;;;;;0.10;0.10;;;;;;;;;;5018638;28;20137;-69
2022/02/07 02:04:30;;;;;;;0.30;0.30;;;;;;;;;;5028796;28;20077;-69
2022/02/07 02:06:59;;;;;;;0.15;0.15;;;;;;;;;;5019640;28;20563;-69
2022/02/07 02:09:30;;;;;;;0.10;0.10;;;;;;;;;;5024084;28;20077;-69
2022/02/07 02:11:58;;;;;;;0.10;0.10;;;;;;;;;;5017996;28;20112;-69
2022/02/07 02:14:40;;;;;;;0.20;0.20;;;;;;;;;;5027386;28;20143;-69
2022/02/07 02:17:34;;;;;;;0.10;0.10;;;;;;;;;;5024052;28;20135;-70
2022/02/07 02:20:41;;;;;;;0.13;0.13;;;;;;;;;;5017061;28;20076;-69
2022/02/07 02:37:11;;;;;;;0.38;0.28;;;;;;;;;;5011565;28;20076;-69
2022/02/07 02:48:08;;;;;;;0.28;0.20;;;;;;;;;;5001966;28;20096;-68
2022/02/07 02:50:37;;;;;;;0.20;0.20;;;;;;;;;;5015056;28;20042;-68
2022/02/07 02:53:06;;;;;;;1.50;0.30;;;;;;;;;;5022282;28;20053;-70
2022/02/07 02:55:35;;;;;;;0.17;0.17;;;;;;;;;;5017067;28;20139;-69
2022/02/07 02:58:06;;;;;;;1.65;0.30;;;;;;;;;;5016852;28;20053;-69
2022/02/07 03:00:35;;;;;;;0.10;0.10;;;;;;;;;;5022589;28;20519;-68
2022/02/07 03:03:03;;;;;;;4.22;0.30;;;;;;;;;;5012112;28;20046;-69
2022/02/07 03:05:32;;;;;;;0.30;0.28;;;;;;;;;;5017667;28;20057;-69
2022/02/07 03:08:21;;;;;;;0.20;0.20;;;;;;;;;;939958;28;10003238;-68
2022/02/07 03:11:00;;;;;;;0.20;0.20;;;;;;;;;;5017890;28;20265;-69
2022/02/07 03:13:49;;;;;;;0.20;0.20;;;;;;;;;;5014951;28;20572;-69
2022/02/07 03:16:37;;;;;;;0.30;0.30;;;;;;;;;;5013957;28;20049;-69
2022/02/07 03:19:07;;;;;;;0.10;0.10;;;;;;;;;;5020858;28;20134;-70
2022/02/07 03:21:35;;;;;;;0.38;0.20;;;;;;;;;;5022787;28;20144;-70
2022/02/07 03:24:04;;;;;;;1.05;0.30;;;;;;;;;;5021304;28;20133;-70
2022/02/07 03:26:36;;;;;;;0.25;0.25;;;;;;;;;;5023732;28;20053;-68
2022/02/07 03:29:06;;;;;;;0.10;0.10;;;;;;;;;;5016703;28;20085;-68
2022/02/07 03:31:34;;;;;;;0.17;0.17;;;;;;;;;;5022615;28;20034;-68
2022/02/07 03:34:02;;;;;;;0.10;0.10;;;;;;;;;;5019941;28;20167;-68
2022/02/07 03:36:32;;;;;;;0.20;0.20;;;;;;;;;;5012408;28;20698;-68
2022/02/07 03:39:01;;;;;;;0.45;0.20;;;;;;;;;;5010639;28;20172;-68
2022/02/07 03:41:30;;;;;;;0.20;0.20;;;;;;;;;;5020313;28;20046;-69
2022/02/07 03:43:59;;;;;;;1.35;0.20;;;;;;;;;;5016496;28;20207;-70
2022/02/07 03:46:28;;;;;;;0.20;0.20;;;;;;;;;;5017082;28;20057;-69
2022/02/07 03:48:56;;;;;;;0.52;0.32;;;;;;;;;;5016984;28;20045;-68
2022/02/07 03:51:25;;;;;;;0.10;0.10;;;;;;;;;;5020778;28;20577;-69
2022/02/07 03:53:53;;;;;;;2.17;0.20;;;;;;;;;;5014674;28;20038;-69
2022/02/07 03:56:21;;;;;;;0.13;0.13;;;;;;;;;;5015647;28;20046;-69
2022/02/07 03:58:49;;;;;;;0.88;0.20;;;;;;;;;;5025760;28;20157;-69
2022/02/07 04:01:21;;;;;;;0.30;0.22;;;;;;;;;;5017373;28;20562;-69
2022/02/07 04:03:51;;;;;;;0.55;0.38;;;;;;;;;;5024853;28;20050;-69
2022/02/07 04:06:21;;;;;;;0.75;0.40;;;;;;;;;;5026565;28;20049;-69
2022/02/07 04:08:54;;;;;;;0.73;0.20;;;;;;;;;;5024111;28;20156;-70
2022/02/07 04:11:27;;;;;;;0.28;0.20;;;;;;;;;;5016664;28;20069;-70
2022/02/07 04:13:57;;;;;;;0.32;0.32;;;;;;;;;;5025512;28;20044;-69
2022/02/07 04:16:29;;;;;;;0.30;0.20;;;;;;;;;;5022913;28;20156;-69
2022/02/07 04:19:04;;;;;;;0.25;0.22;;;;;;;;;;5024925;28;20168;-69
2022/02/07 04:21:33;;;;;;;1.10;0.30;;;;;;;;;;5025631;28;21633;-69
2022/02/07 04:24:01;;;;;;;4.38;0.40;;;;;;;;;;5027026;28;20053;-69
2022/02/07 04:26:29;;;;;;;0.32;0.32;;;;;;;;;;5027170;28;20182;-69
2022/02/07 04:28:58;;;;;;;0.30;0.30;;;;;;;;;;5016171;28;20045;-69
2022/02/07 04:31:31;;;;;;;0.80;0.77;;;;;;;;;;457793;28;10023836;-69
2022/02/07 04:34:01;;;;;;;1.38;0.50;;;;;;;;;;5021244;28;20255;-69
2022/02/07 04:36:30;;;;;;;1.38;0.28;;;;;;;;;;5016157;28;20144;-69
2022/02/07 04:38:59;;;;;;;0.75;0.40;;;;;;;;;;5015097;28;20144;-69
2022/02/07 04:41:27;;;;;;;0.20;0.20;;;;;;;;;;5018711;28;20096;-70
2022/02/07 04:43:59;;;;;;;0.10;0.10;;;;;;;;;;5011008;28;20056;-69
2022/02/07 04:46:41;;;;;;;0.40;0.28;;;;;;;;;;5020963;28;20056;-69
2022/02/07 04:49:47;;;;;;;1.52;0.40;;;;;;;;;;5017408;28;20140;-70
2022/02/07 04:52:39;;;;;;;0.75;0.50;;;;;;;;;;5016825;28;20136;-70
2022/02/07 04:55:14;;;;;;;1.45;0.40;;;;;;;;;;5025971;28;20132;-70
2022/02/07 04:57:49;;;;;;;;;;;;;;;;;;5016719;28;20417;-70
2022/02/07 05:03:11;;;;;;;0.57;0.40;;;;;;;;;;5015047;28;20045;-70
2022/02/07 05:13:59;;;;;;;1.63;0.40;;;;;;;;;;5020872;28;20316;-69
2022/02/07 05:16:29;;;;;;;0.50;0.43;;;;;;;;;;5018078;28;20046;-69
2022/02/07 05:19:01;;;;;;;3.63;0.50;;;;;;;;;;5020298;28;20144;-70
2022/02/07 05:21:31;;;;;;;0.50;0.50;;;;;;;;;;5018028;28;20424;-69
2022/02/07 05:23:59;;;;;;;0.40;0.40;;;;;;;;;;5012553;28;20049;-69
2022/02/07 05:26:28;;;;;;;1.08;0.40;;;;;;;;;;5017713;28;20054;-70
2022/02/07 05:28:59;;;;;;;3.03;0.40;;;;;;;;;;5024054;28;20038;-69
2022/02/07 05:31:28;;;;;;;1.75;0.60;;;;;;;;;;5018946;28;20100;-70
2022/02/07 05:33:56;;;;;;;0.70;0.35;;;;;;;;;;5010274;28;20065;-69
2022/02/07 05:36:24;;;;;;;2.05;0.60;;;;;;;;;;5016523;28;20128;-70
2022/02/07 05:39:03;;;;;;;4.15;0.80;;;;;;;;;;3343640;28;10021442;-70
2022/02/07 05:41:31;;;;;;;2.38;0.68;;;;;;;;;;2586947;28;10001938;-70
2022/02/07 05:44:00;;;;;;;1.20;0.43;;;;;;;;;;5017169;28;20045;-70
2022/02/07 05:46:28;;;;;;;0.40;0.40;;;;;;;;;;5016623;28;20053;-69
2022/02/07 05:48:56;;;;;;;3.50;0.47;;;;;;;;;;5024511;28;20140;-70
2022/02/07 05:51:25;;;;;;;2.97;0.88;;;;;;;;;;5020951;28;20120;-70
2022/02/07 05:53:53;;;;;;;1.52;0.60;;;;;;;;;;5017684;28;20046;-70
2022/02/07 05:56:23;;;;;;;1.02;0.93;;;;;;;;;;5023534;28;20080;-70
2022/02/07 05:58:51;;;;;;;0.73;0.52;;;;;;;;;;5024513;28;20112;-70
2022/02/07 06:01:20;;;;;;;0.30;0.30;;;;;;;;;;5014104;28;20213;-70
2022/02/07 06:03:48;;;;;;;1.05;0.40;;;;;;;;;;5029885;28;20051;-70
2022/02/07 06:06:16;;;;;;;7.40;0.80;;;;;;;;;;5019939;28;20132;-70
2022/02/07 06:08:44;;;;;;;4.78;0.80;;;;;;;;;;5017723;28;20045;-70
2022/02/07 06:11:14;;;;;;;1.40;0.43;;;;;;;;;;5026264;28;20053;-70
2022/02/07 06:13:44;;;;;;;1.77;0.40;;;;;;;;;;5026859;28;20053;-69
2022/02/07 06:16:17;;;;;;;1.52;0.50;;;;;;;;;;5023216;28;20564;-70
2022/02/07 06:18:48;;;;;;;1.35;0.50;;;;;;;;;;5013967;28;20250;-70
2022/02/07 06:21:17;;;;;;;0.25;0.22;;;;;;;;;;5010205;28;20076;-70
2022/02/07 06:23:45;;;;;;;1.08;0.50;;;;;;;;;;5019711;28;20049;-70
2022/02/07 06:26:14;;;;;;;1.20;0.50;;;;;;;;;;5020567;28;20525;-70
2022/02/07 06:28:42;;;;;;;3.92;0.50;;;;;;;;;;5021053;28;20486;-70
2022/02/07 06:31:15;;;;;;;0.57;0.50;;;;;;;;;;5018844;28;20153;-70
2022/02/07 06:33:54;;;;;;;0.95;0.33;;;;;;;;;;3412263;28;10022423;-71
2022/02/07 06:36:22;;;;;;;0.98;0.47;;;;;;;;;;2238552;28;10001996;-70
2022/02/07 06:38:50;;;;;;;2.15;0.57;;;;;;;;;;5017799;28;20053;-71
2022/02/07 06:41:19;;;;;;;1.75;0.63;;;;;;;;;;5026737;28;20528;-70
2022/02/07 06:43:47;;;;;;;1.13;0.40;;;;;;;;;;5012554;28;20095;-70
2022/02/07 06:46:17;;;;;;;0.30;0.30;;;;;;;;;;5016955;28;20416;-71
2022/02/07 06:48:45;;;;;;;0.52;0.52;;;;;;;;;;5019305;28;20504;-70
2022/02/07 06:51:13;;;;;;;4.93;0.60;;;;;;;;;;5016896;28;20532;-71
2022/02/07 06:53:41;;;;;;;2.35;0.73;;;;;;;;;;5021087;28;20107;-70
2022/02/07 06:56:16;;;;;;;2.72;0.60;;;;;;;;;;5019179;28;20054;-69
2022/02/07 06:58:44;;;;;;;0.40;0.40;;;;;;;;;;5027831;28;20164;-71
2022/02/07 07:01:13;;;;;;;5.72;0.68;;;;;;;;;;5029090;28;20549;-72
2022/02/07 07:03:45;;;;;;;0.80;0.60;;;;;;;;;;5025914;28;20119;-69
2022/02/07 07:06:14;;;;;;;2.90;0.45;;;;;;;;;;5026185;28;20136;-69
2022/02/07 07:08:46;;;;;;;3.08;0.50;;;;;;;;;;5027263;28;20128;-69
2022/02/07 07:11:18;;;;;;;1.60;0.50;;;;;;;;;;5026360;28;20493;-69
2022/02/07 07:13:51;;;;;;;2.78;0.63;;;;;;;;;;5015288;28;20085;-69
2022/02/07 07:16:50;;;;;;;1.50;0.68;;;;;;;;;;5014440;28;20073;-70
2022/02/07 07:19:20;;;;;;;5.35;0.70;;;;;;;;;;5015914;28;20136;-69
2022/02/07 07:21:49;;;;;;;6.65;0.93;;;;;;;;;;5022929;28;20095;-69
2022/02/07 07:24:17;;;;;;;2.17;0.70;;;;;;;;;;5030481;28;20568;-69
2022/02/07 07:26:46;;;;;;;1.95;0.75;;;;;;;;;;5025212;28;20136;-69
2022/02/07 07:29:18;;;;;;;1.27;0.70;;;;;;;;;;5044362;28;20163;-69
2022/02/07 07:31:50;;;;;;;1.92;0.85;;;;;;;;;;5020709;28;20056;-70
2022/02/07 07:34:20;;;;;;;0.88;0.63;;;;;;;;;;5026405;28;20156;-70
2022/02/07 07:36:48;;;;;;;5.20;0.88;;;;;;;;;;5014136;28;20144;-70
2022/02/07 07:39:17;;;;;;;2.13;0.60;;;;;;;;;;5024461;28;20506;-70
2022/02/07 07:41:47;;;;;;;2.30;0.73;;;;;;;;;;5014108;28;20137;-70
2022/02/07 07:44:18;;;;;;;5.53;0.90;;;;;;;;;;5011404;28;20100;-69
2022/02/07 07:46:52;;;;;;;1.48;0.60;;;;;;;;;;5015757;28;20053;-70
2022/02/07 07:49:31;;;;;;;4.88;0.88;;;;;;;;;;5020998;28;20058;-69
2022/02/07 07:52:06;;;;;;;5.15;1.05;;;;;;;;;;5018816;28;20338;-69
2022/02/07 07:54:48;;;;;;;2.10;0.63;;;;;;;;;;5024055;28;20049;-70
2022/02/07 08:02:53;;;;;;;3.13;0.57;;;;;;;;;;5017241;28;20046;-69
2022/02/07 08:05:45;;;;;;;1.05;0.58;;;;;;;;;;1202291;28;10023775;-69
2022/02/07 08:08:23;;;;;;;2.22;0.77;;;;;;;;;;4648940;28;10000997;-70
2022/02/07 08:11:01;;;;;;;3.45;0.90;;;;;;;;;;5021860;28;20497;-70
2022/02/07 08:13:32;;;;;;;3.30;0.85;;;;;;;;;;5016311;28;20042;-70
2022/02/07 08:16:01;;;;;;;2.28;1.00;;;;;;;;;;5021366;28;20045;-70
2022/02/07 08:18:30;;;;;;;1.10;0.88;;;;;;;;;;5017540;28;20124;-70
2022/02/07 08:21:00;;;;;;;1.65;0.63;;;;;;;;;;5021582;28;20046;-70
2022/02/07 08:23:29;;;;;;;2.42;0.60;;;;;;;;;;5025530;28;20390;-70
2022/02/07 08:26:01;;;;;;;2.53;0.77;;;;;;;;;;5026850;28;20045;-70
2022/02/07 08:28:45;;;;;;;0.90;0.45;;;;;;;;;;5025579;28;20048;-70
2022/02/07 08:31:17;;;;;;;4.25;0.93;;;;;;;;;;5022955;28;20072;-70
2022/02/07 08:33:47;;;;;;;3.58;0.77;;;;;;;;;;5028046;28;20084;-70
2022/02/07 08:36:17;;;;;;;2.58;0.73;;;;;;;;;;5027832;28;20052;-70
2022/02/07 08:38:46;;;;;;;3.10;0.80;;;;;;;;;;5013448;28;20050;-70
2022/02/07 08:41:15;;;;;;;4.47;0.95;;;;;;;;;;5016641;28;20442;-69
2022/02/07 08:43:43;;;;;;;1.85;0.60;;;;;;;;;;5015201;28;20110;-70
2022/02/07 08:46:16;;;;;;;2.78;1.42;;;;;;;;;;5013530;28;20048;-70
2022/02/07 08:48:44;;;;;;;2.42;0.90;;;;;;;;;;5024214;28;20053;-70
2022/02/07 08:51:21;;;;;;;4.53;1.10;;;;;;;;;;5018702;28;20053;-70
2022/02/07 08:53:51;;;;;;;4.28;0.68;;;;;;;;;;5014578;28;20049;-70
2022/02/07 08:56:30;;;;;;;2.92;1.00;;;;;;;;;;5018771;28;20132;-70
2022/02/07 08:58:59;;;;;;;4.15;0.70;;;;;;;;;;5016634;28;20559;-70
2022/02/07 09:01:40;;;;;;;1.23;0.70;;;;;;;;;;5027080;28;20052;-70
2022/02/07 09:04:42;;;;;;;1.45;0.80;;;;;;;;;;5026935;28;20041;-70
2022/02/07 09:07:17;;;;;;;1.42;0.70;;;;;;;;;;5019804;28;20041;-70
2022/02/07 09:09:46;;;;;;;3.20;1.27;;;;;;;;;;5023035;28;20075;-70
2022/02/07 09:12:14;;;;;;;2.40;0.93;;;;;;;;;;5026536;28;20145;-70
2022/02/07 09:14:54;;;;;;;1.73;0.65;;;;;;;;;;5032264;28;20046;-69
2022/02/07 09:17:23;;;;;;;2.35;0.85;;;;;;;;;;5019547;28;20046;-70
2022/02/07 09:19:54;;;;;;;1.17;0.57;;;;;;;;;;5027295;28;20050;-70
2022/02/07 09:22:24;;;;;;;4.22;0.80;;;;;;;;;;5030511;28;20131;-70
2022/02/07 09:24:53;;;;;;;2.10;0.40;;;;;;;;;;5028369;28;20383;-70
2022/02/07 09:27:21;;;;;;;3.92;0.68;;;;;;;;;;5029360;28;20050;-70
2022/02/07 09:29:50;;;;;;;1.48;0.65;;;;;;;;;;5029600;28;20073;-70
2022/02/07 09:32:18;;;;;;;3.88;0.90;;;;;;;;;;5023062;28;20053;-70
2022/02/07 09:34:47;;;;;;;2.88;1.60;;;;;;;;;;5030854;28;20057;-70
2022/02/07 09:37:16;;;;;;;2.08;0.70;;;;;;;;;;5024832;28;20765;-70
2022/02/07 09:39:46;;;;;;;6.32;0.88;;;;;;;;;;5034278;28;20051;-70
2022/02/07 09:42:17;;;;;;;5.18;1.05;;;;;;;;;;5031061;28;20085;-70
2022/02/07 09:44:51;;;;;;;3.25;0.82;;;;;;;;;;5023486;28;20477;-70
2022/02/07 09:47:20;;;;;;;2.78;1.00;;;;;;;;;;5028874;28;20576;-70
2022/02/07 09:49:49;;;;;;;2.50;0.88;;;;;;;;;;5022656;28;20056;-70
2022/02/07 09:52:17;;;;;;;8.38;1.10;;;;;;;;;;5030771;28;20037;-70
2022/02/07 09:54:48;;;;;;;3.65;0.85;;;;;;;;;;5032183;28;20075;-70
2022/02/07 09:57:19;;;;;;;2.03;0.77;;;;;;;;;;5031024;28;20041;-70
2022/02/07 09:59:51;;;;;;;4.25;0.70;;;;;;;;;;5031216;28;20076;-70
2022/02/07 10:02:26;;;;;;;2.42;0.95;;;;;;;;;;5016715;28;20079;-70
2022/02/07 10:04:58;;;;;;;5.10;0.70;;;;;;;;;;5024066;28;20140;-70
2022/02/07 10:07:35;;;;;;;1.13;0.52;;;;;;;;;;5014225;28;20502;-70
2022/02/07 10:10:19;;;;;;;3.38;1.00;;;;;;;;;;5016475;28;20132;-70
2022/02/07 10:13:16;;;;;;;3.22;0.50;;;;;;;;;;5023950;28;20041;-70
2022/02/07 10:15:51;;;;;;;11.57;0.88;;;;;;;;;;5027230;28;20635;-70
2022/02/07 10:18:35;;;;;;;5.38;1.15;;;;;;;;;;5028005;28;20053;-70
2022/02/07 10:21:46;;;;;;;5.25;1.00;;;;;;;;;;5029448;28;20049;-70
2022/02/07 10:36:08;;;;;;;4.82;1.08;;;;;;;;;;4977198;28;20041;-70
2022/02/07 10:39:25;;;;;;;5.47;1.10;;;;;;;;;;5004303;28;20636;-69
2022/02/07 10:42:13;;;;;;;3.05;0.88;;;;;;;;;;5030034;28;20069;-70
2022/02/07 10:44:45;;;;;;;2.47;0.80;;;;;;;;;;5033222;28;20045;-70
2022/02/07 10:47:20;;;;;;;9.48;1.10;;;;;;;;;;5029684;28;20057;-69
2022/02/07 10:50:03;;;;;;;3.92;0.70;;;;;;;;;;5030142;28;20045;-70
2022/02/07 10:52:47;;;;;;;8.77;1.08;;;;;;;;;;5021866;28;20050;-70
2022/02/07 10:55:19;;;;;;;3.60;0.60;;;;;;;;;;5028343;28;20127;-70
2022/02/07 10:57:50;;;;;;;3.17;0.90;;;;;;;;;;5028900;28;20042;-70
2022/02/07 11:00:26;;;;;;;2.85;0.88;;;;;;;;;;5044059;28;20046;-70
2022/02/07 11:03:05;;;;;;;4.00;0.95;;;;;;;;;;5025925;28;20394;-70
2022/02/07 11:05:40;;;;;;;6.30;1.17;;;;;;;;;;5024584;28;20057;-70
2022/02/07 11:08:25;;;;;;;5.00;0.90;;;;;;;;;;1452001;28;10023077;-70
2022/02/07 11:14:03;;;;;;;6.72;0.90;;;;;;;;;;5022504;28;20041;-69
2022/02/07 11:16:43;;;;;;;9.77;1.15;;;;;;;;;;5028184;28;20045;-69
2022/02/07 11:19:37;;;;;;;2.40;0.82;;;;;;;;;;5018041;28;20050;-69
2022/02/07 11:22:18;;;;;;;2.85;0.82;;;;;;;;;;5028545;28;20943;-70
2022/02/07 11:27:50;;;;;;;8.93;1.65;;;;;;;;;;5020730;28;20052;-70
2022/02/07 11:30:20;;;;;;;2.47;0.90;;;;;;;;;;5028423;28;20142;-70
2022/02/07 11:32:54;;;;;;;7.97;1.42;;;;;;;;;;5027053;28;20053;-71
2022/02/07 11:35:24;;;;;;;4.83;0.90;;;;;;;;;;5017276;28;20084;-70
2022/02/07 11:37:54;;;;;;;3.25;1.05;;;;;;;;;;5028412;28;20799;-69
2022/02/07 11:40:26;;;;;;;2.88;0.90;;;;;;;;;;5029189;28;20476;-70
2022/02/07 11:43:08;;;;;;;1.42;0.68;;;;;;;;;;5022032;28;20077;-70
2022/02/07 11:45:49;;;;;;;5.18;0.98;;;;;;;;;;5029473;28;20061;-71
2022/02/07 11:48:20;;;;;;;9.32;0.80;;;;;;;;;;5006871;28;20060;-70
2022/02/07 11:50:49;;;;;;;2.55;0.80;;;;;;;;;;5021806;28;20184;-70
2022/02/07 11:53:21;;;;;;;5.53;1.10;;;;;;;;;;5019918;28;20132;-70
2022/02/07 11:55:58;;;;;;;3.25;0.82;;;;;;;;;;5014912;28;20042;-70
2022/02/07 11:58:28;;;;;;;4.38;0.70;;;;;;;;;;5025644;28;20054;-70
2022/02/07 12:00:58;;;;;;;1.67;0.60;;;;;;;;;;5022807;28;20068;-70
2022/02/07 12:03:29;;;;;;;3.22;1.00;;;;;;;;;;5025840;28;20053;-70
2022/02/07 12:05:58;;;;;;;3.40;1.02;;;;;;;;;;5021101;28;20053;-71
2022/02/07 12:08:32;;;;;;;6.32;1.10;;;;;;;;;;5025843;28;20061;-70
2022/02/07 12:11:17;;;;;;;3.72;0.85;;;;;;;;;;5032675;28;20049;-70
2022/02/07 12:13:45;;;;;;;2.90;0.65;;;;;;;;;;5024942;28;20457;-70
2022/02/07 12:16:16;;;;;;;4.63;1.20;;;;;;;;;;5021816;28;20055;-69
2022/02/07 12:18:49;;;;;;;3.15;0.80;;;;;;;;;;5021181;28;20085;-70
2022/02/07 12:21:19;;;;;;;7.47;0.80;;;;;;;;;;5026365;28;20053;-70
2022/02/07 12:23:57;;;;;;;4.95;0.48;;;;;;;;;;1520282;28;10022743;-70
2022/02/07 12:26:27;;;;;;;6.43;2.45;;;;;;;;;;3975026;28;10001707;-70
2022/02/07 12:29:02;;;;;;;3.50;0.70;;;;;;;;;;5020001;28;20045;-70
2022/02/07 12:31:31;;;;;;;1.23;0.52;;;;;;;;;;5025861;28;20099;-70
2022/02/07 12:34:03;;;;;;;4.78;0.60;;;;;;;;;;5017261;28;20048;-70
2022/02/07 12:36:33;;;;;;;2.53;1.33;;;;;;;;;;5015641;28;20057;-70
2022/02/07 12:39:03;;;;;;;2.70;0.75;;;;;;;;;;5018229;28;20057;-70
2022/02/07 12:41:33;;;;;;;3.28;1.05;;;;;;;;;;5017091;28;20480;-70
2022/02/07 12:44:02;;;;;;;4.88;1.50;;;;;;;;;;5005229;28;20486;-70
2022/02/07 12:46:33;;;;;;;3.33;1.00;;;;;;;;;;5017589;28;20124;-69
2022/02/07 12:49:10;;;;;;;4.25;0.60;;;;;;;;;;5023093;28;20053;-70
2022/02/07 12:51:43;;;;;;;4.90;0.82;;;;;;;;;;5016741;28;20045;-70
2022/02/07 12:54:13;;;;;;;9.80;1.00;;;;;;;;;;5011140;28;20140;-69
2022/02/07 12:56:41;;;;;;;3.47;0.90;;;;;;;;;;5021705;28;20395;-70
2022/02/07 12:59:10;;;;;;;3.17;0.80;;;;;;;;;;5024586;28;20053;-69
2022/02/07 13:01:42;;;;;;;3.55;0.70;;;;;;;;;;5024712;28;20045;-70
2022/02/07 13:04:19;;;;;;;4.30;0.70;;;;;;;;;;5020266;28;20049;-69
2022/02/07 13:06:49;;;;;;;5.90;1.08;;;;;;;;;;5018629;28;20497;-69
2022/02/07 13:09:24;;;;;;;3.97;1.00;;;;;;;;;;5021171;28;20046;-70
2022/02/07 13:12:01;;;;;;;7.70;0.80;;;;;;;;;;5018651;28;20092;-70
2022/02/07 13:14:31;;;;;;;2.17;0.80;;;;;;;;;;5023770;28;20148;-70
2022/02/07 13:17:00;;;;;;;2.53;0.77;;;;;;;;;;5012611;28;20145;-70
2022/02/07 13:19:35;;;;;;;5.43;1.33;;;;;;;;;;5011379;28;20561;-70
2022/02/07 13:22:04;;;;;;;3.90;0.73;;;;;;;;;;5014547;28;20559;-70
2022/02/07 13:24:35;;;;;;;4.93;1.05;;;;;;;;;;5015861;28;20066;-70
2022/02/07 13:27:06;;;;;;;1.70;1.52;;;;;;;;;;5012146;28;20491;-70
2022/02/07 13:29:38;;;;;;;3.47;1.23;;;;;;;;;;5013156;28;20046;-70
2022/02/07 13:32:07;;;;;;;8.45;1.50;;;;;;;;;;5017149;28;20560;-70
2022/02/07 13:34:38;;;;;;;4.03;1.20;;;;;;;;;;5017026;28;20474;-70
2022/02/07 13:37:09;;;;;;;3.17;1.30;;;;;;;;;;5018752;28;20045;-70
2022/02/07 13:39:51;;;;;;;1.75;1.23;;;;;;;;;;5027195;28;20045;-70
2022/02/07 13:42:19;;;;;;;5.03;1.20;;;;;;;;;;5022224;28;20107;-70
2022/02/07 13:44:48;;;;;;;3.92;0.98;;;;;;;;;;5016820;28;20052;-70
2022/02/07 13:47:17;;;;;;;5.40;1.67;;;;;;;;;;5018921;28;20481;-70
2022/02/07 13:49:54;;;;;;;2.42;1.20;;;;;;;;;;5018441;28;20061;-70
2022/02/07 13:52:30;;;;;;;5.07;1.38;;;;;;;;;;5019702;28;20478;-70
2022/02/07 13:55:10;;;;;;;6.38;1.35;;;;;;;;;;5017122;28;20088;-70
2022/02/07 13:57:49;;;;;;;4.18;1.00;;;;;;;;;;5027076;28;20041;-70
2022/02/07 14:00:18;;;;;;;6.70;1.35;;;;;;;;;;5030917;28;20052;-70
2022/02/07 14:02:47;;;;;;;3.42;1.40;;;;;;;;;;5032339;28;20049;-69
2022/02/07 14:05:19;;;;;;;3.75;0.95;;;;;;;;;;1348575;28;10022661;-71
2022/02/07 14:07:51;;;;;;;4.32;1.00;;;;;;;;;;3984552;28;10000993;-70
2022/02/07 14:10:21;;;;;;;1.73;0.90;;;;;;;;;;5023511;28;20081;-70
2022/02/07 14:12:52;;;;;;;1.83;1.30;;;;;;;;;;5017371;28;20060;-70
2022/02/07 14:15:21;;;;;;;9.23;1.00;;;;;;;;;;5021843;28;20129;-70
2022/02/07 14:17:49;;;;;;;4.15;1.10;;;;;;;;;;5020631;28;20060;-70
2022/02/07 14:20:28;;;;;;;1.60;0.80;;;;;;;;;;5026934;28;20107;-70
2022/02/07 14:22:57;;;;;;;4.35;1.02;;;;;;;;;;5024220;28;20065;-70
2022/02/07 14:25:29;;;;;;;10.95;1.50;;;;;;;;;;5021920;28;20057;-70
2022/02/07 14:27:57;;;;;;;3.13;1.42;;;;;;;;;;5023853;28;20514;-70
2022/02/07 14:30:33;;;;;;;4.70;1.30;;;;;;;;;;5024660;28;20335;-70
2022/02/07 14:33:02;;;;;;;3.22;1.20;;;;;;;;;;5016151;28;20053;-72
2022/02/07 14:35:33;;;;;;;1.88;1.50;;;;;;;;;;5013574;28;20061;-70
2022/02/07 14:38:03;;;;;;;6.40;0.90;;;;;;;;;;5022104;28;20053;-71
2022/02/07 14:40:32;;;;;;;6.75;1.25;;;;;;;;;;5014242;28;20076;-71
2022/02/07 14:43:05;;;;;;;5.00;1.10;;;;;;;;;;5021132;28;20061;-70
2022/02/07 14:45:38;;;;;;;4.28;1.20;;;;;;;;;;5020378;28;20041;-70
2022/02/07 14:48:07;;;;;;;5.38;1.20;;;;;;;;;;5022934;28;20149;-71
2022/02/07 14:50:37;;;;;;;3.15;0.90;;;;;;;;;;5016584;28;20100;-70
2022/02/07 14:53:06;;;;;;;8.02;1.48;;;;;;;;;;5026024;28;20139;-71
2022/02/07 14:55:35;;;;;;;5.93;1.10;;;;;;;;;;5023771;28;20084;-71
2022/02/07 14:58:03;;;;;;;3.40;1.02;;;;;;;;;;5022059;28;20555;-70
2022/02/07 15:00:32;;;;;;;2.28;0.90;;;;;;;;;;5024956;28;20049;-71
2022/02/07 15:03:01;;;;;;;1.83;0.88;;;;;;;;;;5025590;28;20063;-70
2022/02/07 15:05:31;;;;;;;1.95;1.08;;;;;;;;;;5021847;28;20056;-71
2022/02/07 15:08:01;;;;;;;2.78;1.02;;;;;;;;;;5016209;28;20038;-70
2022/02/07 15:10:31;;;;;;;3.33;1.60;;;;;;;;;;5021442;28;20658;-71
2022/02/07 15:13:00;;;;;;;7.88;1.25;;;;;;;;;;5014520;28;20054;-71
2022/02/07 15:15:29;;;;;;;4.07;1.13;;;;;;;;;;5020641;28;20045;-70
2022/02/07 15:18:02;;;;;;;11.18;1.58;;;;;;;;;;5022213;28;20088;-71
2022/02/07 15:20:30;;;;;;;5.53;1.15;;;;;;;;;;5020856;28;20045;-70
2022/02/07 15:23:00;;;;;;;6.57;1.60;;;;;;;;;;5015430;28;20049;-70
2022/02/07 15:25:30;;;;;;;2.83;1.00;;;;;;;;;;5018522;28;20135;-71
2022/02/07 15:28:00;;;;;;;5.95;1.40;;;;;;;;;;5024563;28;20107;-71
2022/02/07 15:30:40;;;;;;;6.18;1.10;;;;;;;;;;5024863;28;20046;-71
2022/02/07 15:33:11;;;;;;;3.40;1.25;;;;;;;;;;5025770;28;20056;-70
2022/02/07 15:35:41;;;;;;;3.30;1.10;;;;;;;;;;5020735;28;20045;-70
2022/02/07 15:38:11;;;;;;;9.52;1.58;;;;;;;;;;5022405;28;20129;-70
2022/02/07 15:40:39;;;;;;;3.40;0.95;;;;;;;;;;5026995;28;20041;-70
2022/02/07 15:43:08;;;;;;;5.60;1.40;;;;;;;;;;5023101;28;20048;-70
2022/02/07 15:45:39;;;;;;;2.72;1.20;;;;;;;;;;5023973;28;20149;-71
2022/02/07 15:48:07;;;;;;;3.33;1.17;;;;;;;;;;5018927;28;20124;-70
2022/02/07 15:50:37;;;;;;;2.88;0.88;;;;;;;;;;5014762;28;20088;-70
2022/02/07 15:53:07;;;;;;;6.85;1.48;;;;;;;;;;5019866;28;20461;-70
2022/02/07 15:55:37;;;;;;;3.42;1.02;;;;;;;;;;5025632;28;20107;-70
2022/02/07 15:58:05;;;;;;;2.53;0.95;;;;;;;;;;5022930;28;20053;-70
2022/02/07 16:00:34;;;;;;;5.40;1.20;;;;;;;;;;5027464;28;20552;-70
2022/02/07 16:03:05;;;;;;;3.55;1.17;;;;;;;;;;5023869;28;20131;-70
2022/02/07 16:05:34;;;;;;;4.15;1.15;;;;;;;;;;5017502;28;20054;-71
2022/02/07 16:08:02;;;;;;;4.68;1.25;;;;;;;;;;5023057;28;20290;-70
2022/02/07 16:10:36;;;;;;;3.58;1.08;;;;;;;;;;5022834;28;20059;-71
2022/02/07 16:13:17;;;;;;;5.32;1.40;;;;;;;;;;5025134;28;20524;-70
2022/02/07 16:15:47;;;;;;;2.90;1.08;;;;;;;;;;5029112;28;20045;-70
2022/02/07 16:18:16;;;;;;;5.05;1.20;;;;;;;;;;5020231;28;20049;-70
2022/02/07 16:20:46;;;;;;;2.90;1.42;;;;;;;;;;5027947;28;20455;-70
2022/02/07 16:23:15;;;;;;;3.33;1.00;;;;;;;;;;5024017;28;20512;-70
2022/02/07 16:25:46;;;;;;;6.03;1.60;;;;;;;;;;5023788;28;20045;-71
2022/02/07 16:28:28;;;;;;;2.38;0.97;;;;;;;;;;3450110;28;10021436;-70
2022/02/07 16:30:57;;;;;;;;;;;;;;;;;;2596122;28;10001969;-69
2022/02/07 16:33:25;;;;;;;5.40;1.08;;;;;;;;;;5017039;28;19925;-70
2022/02/07 16:35:54;;;;;;;9.77;1.30;;;;;;;;;;5022520;28;20033;-70
2022/02/07 16:38:22;;;;;;;9.73;1.58;;;;;;;;;;5025991;28;20053;-71